This is the latest recevied weather packets stored in our database for station/object K5RNB. If no packets are shown the sender has not sent any weather packets the latest 10 day(s).
| Time | Temp. | Humidity | Pressure | Rain* | Wind** | Luminosity | Snow |
|---|---|---|---|---|---|---|---|
| 1777055957 | 28.89° C | 64% | 1003.3 hPa | 0 mm | - | - | - |
| 1777054157 | 28.33° C | 68% | 1003.8 hPa | 0 mm | - | - | - |
| 1777053857 | 28.33° C | 68% | 1003.8 hPa | 0 mm | - | - | - |
| 1777052058 | 27.78° C | 70% | 1003.8 hPa | 0 mm | - | - | - |
| 1777051158 | 27.22° C | 72% | 1003.9 hPa | 0 mm | - | - | - |
| 1777050258 | 26.67° C | 74% | 1004.1 hPa | 0 mm | - | - | - |
| 1777045158 | 25° C | 80% | 1004.1 hPa | 0 mm | - | - | - |
| 1777042159 | 23.89° C | 83% | 1003.8 hPa | 0 mm | - | - | - |
| 1777040659 | 23.33° C | 83% | 1003.7 hPa | 0 mm | - | - | - |
| 1777038858 | 23.33° C | 84% | 1003.7 hPa | 0 mm | - | - | - |
| 1777033460 | 22.22° C | 84% | 1003.1 hPa | 0 mm | - | - | - |
| 1777031060 | 22.22° C | 84% | 1002.6 hPa | 0 mm | - | - | - |
| 1777030760 | 22.22° C | 84% | 1002.5 hPa | 0 mm | - | - | - |
| 1777029259 | 22.22° C | 83% | 1002.4 hPa | 0 mm | - | - | - |
| 1777024161 | 22.78° C | 83% | 1002.7 hPa | 0 mm | - | - | - |
| 1777023260 | 22.78° C | 83% | 1002.7 hPa | 0 mm | - | - | - |
| 1777021460 | 22.78° C | 83% | 1002.7 hPa | 0 mm | - | - | - |
| 1777021161 | 22.78° C | 83% | 1002.7 hPa | 0 mm | - | - | - |
| 1777020561 | 22.78° C | 83% | 1002.5 hPa | 0 mm | - | - | - |
| 1777019960 | 22.78° C | 83% | 1002.7 hPa | 0 mm | - | - | - |
| 1777018460 | 22.78° C | 82% | 1002.4 hPa | 0 mm | - | - | - |
| 1777018161 | 22.78° C | 83% | 1002.4 hPa | 0 mm | - | - | - |
| 1777017561 | 22.78° C | 83% | 1002.5 hPa | 0 mm | - | - | - |
| 1777016661 | 22.78° C | 82% | 1002.4 hPa | 0 mm | - | - | - |
| 1777016063 | 22.78° C | 82% | 1002.6 hPa | 0 mm | - | - | - |
* Rain latest hour (hover to see other rain measurements)
** Current wind speed in m/s (hover to see current wind gust speed)